sensor_id;sensor_type;location;lat;lon;timestamp;temperature;humidity
52849;DHT22;38714;53.180;5.812;2023-08-31T00:01:49;12.40;99.90
52849;DHT22;38714;53.180;5.812;2023-08-31T00:04:15;12.40;99.90
52849;DHT22;38714;53.180;5.812;2023-08-31T00:06:41;12.40;99.90
52849;DHT22;38714;53.180;5.812;2023-08-31T00:09:07;12.40;99.90
52849;DHT22;38714;53.180;5.812;2023-08-31T00:11:35;12.30;99.90
52849;DHT22;38714;53.180;5.812;2023-08-31T00:14:01;12.30;99.90
52849;DHT22;38714;53.180;5.812;2023-08-31T00:16:27;12.30;99.90
52849;DHT22;38714;53.180;5.812;2023-08-31T00:18:53;12.20;99.90
52849;DHT22;38714;53.180;5.812;2023-08-31T00:21:20;12.20;99.90
52849;DHT22;38714;53.180;5.812;2023-08-31T00:23:46;12.30;99.90
52849;DHT22;38714;53.180;5.812;2023-08-31T00:26:12;12.20;99.90
52849;DHT22;38714;53.180;5.812;2023-08-31T00:28:37;12.30;99.90
52849;DHT22;38714;53.180;5.812;2023-08-31T00:31:04;12.20;99.90
52849;DHT22;38714;53.180;5.812;2023-08-31T00:33:30;12.30;99.90
52849;DHT22;38714;53.180;5.812;2023-08-31T00:35:59;12.20;99.90
52849;DHT22;38714;53.180;5.812;2023-08-31T00:38:27;12.20;99.90
52849;DHT22;38714;53.180;5.812;2023-08-31T00:40:53;12.20;99.90
52849;DHT22;38714;53.180;5.812;2023-08-31T00:43:19;12.20;99.90
52849;DHT22;38714;53.180;5.812;2023-08-31T00:45:48;12.20;99.90
52849;DHT22;38714;53.180;5.812;2023-08-31T00:48:17;12.20;99.90
52849;DHT22;38714;53.180;5.812;2023-08-31T00:50:44;12.20;99.90
52849;DHT22;38714;53.180;5.812;2023-08-31T00:53:11;12.20;99.90
52849;DHT22;38714;53.180;5.812;2023-08-31T00:55:36;12.20;99.90
52849;DHT22;38714;53.180;5.812;2023-08-31T00:58:03;12.20;99.90
52849;DHT22;38714;53.180;5.812;2023-08-31T01:00:49;12.20;99.90
52849;DHT22;38714;53.180;5.812;2023-08-31T01:06:31;12.20;99.90
52849;DHT22;38714;53.180;5.812;2023-08-31T01:12:03;12.20;99.90
52849;DHT22;38714;53.180;5.812;2023-08-31T01:14:44;12.10;99.90
52849;DHT22;38714;53.180;5.812;2023-08-31T01:17:12;12.20;99.90
52849;DHT22;38714;53.180;5.812;2023-08-31T01:22:50;12.10;99.90
52849;DHT22;38714;53.180;5.812;2023-08-31T01:25:07;12.10;99.90
52849;DHT22;38714;53.180;5.812;2023-08-31T01:27:35;12.10;99.90
52849;DHT22;38714;53.180;5.812;2023-08-31T01:30:02;12.10;99.90
52849;DHT22;38714;53.180;5.812;2023-08-31T01:32:29;12.10;99.90
52849;DHT22;38714;53.180;5.812;2023-08-31T01:34:55;12.10;99.90
52849;DHT22;38714;53.180;5.812;2023-08-31T01:42:37;12.10;99.90
52849;DHT22;38714;53.180;5.812;2023-08-31T01:45:04;12.10;99.90
52849;DHT22;38714;53.180;5.812;2023-08-31T01:47:30;12.10;99.90
52849;DHT22;38714;53.180;5.812;2023-08-31T01:49:56;12.10;99.90
52849;DHT22;38714;53.180;5.812;2023-08-31T01:52:22;12.10;99.90
52849;DHT22;38714;53.180;5.812;2023-08-31T01:54:48;12.10;99.90
52849;DHT22;38714;53.180;5.812;2023-08-31T01:57:14;12.10;99.90
52849;DHT22;38714;53.180;5.812;2023-08-31T01:59:39;12.10;99.90
52849;DHT22;38714;53.180;5.812;2023-08-31T02:02:05;12.10;99.90
52849;DHT22;38714;53.180;5.812;2023-08-31T02:04:30;12.10;99.90
52849;DHT22;38714;53.180;5.812;2023-08-31T02:06:57;12.10;99.90
52849;DHT22;38714;53.180;5.812;2023-08-31T02:09:22;12.10;99.90
52849;DHT22;38714;53.180;5.812;2023-08-31T02:11:48;12.10;99.90
52849;DHT22;38714;53.180;5.812;2023-08-31T02:14:14;12.10;99.90
52849;DHT22;38714;53.180;5.812;2023-08-31T02:16:39;12.20;99.90
52849;DHT22;38714;53.180;5.812;2023-08-31T02:19:05;12.20;99.90
52849;DHT22;38714;53.180;5.812;2023-08-31T02:21:30;12.20;99.90
52849;DHT22;38714;53.180;5.812;2023-08-31T02:23:56;12.20;99.90
52849;DHT22;38714;53.180;5.812;2023-08-31T02:26:22;12.20;99.90
52849;DHT22;38714;53.180;5.812;2023-08-31T02:28:47;12.20;99.90
52849;DHT22;38714;53.180;5.812;2023-08-31T02:31:14;12.20;99.90
52849;DHT22;38714;53.180;5.812;2023-08-31T02:33:40;12.30;99.90
52849;DHT22;38714;53.180;5.812;2023-08-31T02:36:05;12.30;99.90
52849;DHT22;38714;53.180;5.812;2023-08-31T02:38:31;12.30;99.90
52849;DHT22;38714;53.180;5.812;2023-08-31T02:40:57;12.30;99.90
52849;DHT22;38714;53.180;5.812;2023-08-31T02:43:23;12.30;99.90
52849;DHT22;38714;53.180;5.812;2023-08-31T02:45:58;12.30;99.90
52849;DHT22;38714;53.180;5.812;2023-08-31T02:48:24;12.30;99.90
52849;DHT22;38714;53.180;5.812;2023-08-31T02:50:49;12.30;99.90
52849;DHT22;38714;53.180;5.812;2023-08-31T02:53:15;12.40;99.90
52849;DHT22;38714;53.180;5.812;2023-08-31T02:55:42;12.40;99.90
52849;DHT22;38714;53.180;5.812;2023-08-31T02:58:07;12.40;99.90
52849;DHT22;38714;53.180;5.812;2023-08-31T03:00:33;12.40;99.90
52849;DHT22;38714;53.180;5.812;2023-08-31T03:02:59;12.40;99.90
52849;DHT22;38714;53.180;5.812;2023-08-31T03:05:25;12.30;99.90
52849;DHT22;38714;53.180;5.812;2023-08-31T03:07:50;12.40;99.90
52849;DHT22;38714;53.180;5.812;2023-08-31T03:10:16;12.40;99.90
52849;DHT22;38714;53.180;5.812;2023-08-31T03:12:42;12.30;99.90
52849;DHT22;38714;53.180;5.812;2023-08-31T03:15:08;12.40;99.90
52849;DHT22;38714;53.180;5.812;2023-08-31T03:17:34;12.40;99.90
52849;DHT22;38714;53.180;5.812;2023-08-31T03:20:00;12.30;99.90
52849;DHT22;38714;53.180;5.812;2023-08-31T03:22:25;12.30;99.90
52849;DHT22;38714;53.180;5.812;2023-08-31T03:24:51;12.30;99.90
52849;DHT22;38714;53.180;5.812;2023-08-31T03:27:16;12.30;99.90
52849;DHT22;38714;53.180;5.812;2023-08-31T03:29:42;12.30;99.90
52849;DHT22;38714;53.180;5.812;2023-08-31T03:32:08;12.30;99.90
52849;DHT22;38714;53.180;5.812;2023-08-31T03:34:33;12.30;99.90
52849;DHT22;38714;53.180;5.812;2023-08-31T03:36:59;12.30;99.90
52849;DHT22;38714;53.180;5.812;2023-08-31T03:39:26;12.30;99.90
52849;DHT22;38714;53.180;5.812;2023-08-31T03:41:51;12.20;99.90
52849;DHT22;38714;53.180;5.812;2023-08-31T03:44:17;12.30;99.90
52849;DHT22;38714;53.180;5.812;2023-08-31T03:46:43;12.20;99.90
52849;DHT22;38714;53.180;5.812;2023-08-31T03:49:09;12.20;99.90
52849;DHT22;38714;53.180;5.812;2023-08-31T03:51:34;12.20;99.90
52849;DHT22;38714;53.180;5.812;2023-08-31T03:54:00;12.10;99.90
52849;DHT22;38714;53.180;5.812;2023-08-31T03:56:26;12.10;99.90
52849;DHT22;38714;53.180;5.812;2023-08-31T03:58:52;12.10;99.90
52849;DHT22;38714;53.180;5.812;2023-08-31T04:01:18;12.10;99.90
52849;DHT22;38714;53.180;5.812;2023-08-31T04:03:43;12.10;99.90
52849;DHT22;38714;53.180;5.812;2023-08-31T04:06:09;12.10;99.90
52849;DHT22;38714;53.180;5.812;2023-08-31T04:08:36;12.10;99.90
52849;DHT22;38714;53.180;5.812;2023-08-31T04:11:02;12.00;99.90
52849;DHT22;38714;53.180;5.812;2023-08-31T04:13:28;12.00;99.90
52849;DHT22;38714;53.180;5.812;2023-08-31T04:15:54;12.00;99.90
52849;DHT22;38714;53.180;5.812;2023-08-31T04:18:20;12.00;99.90
52849;DHT22;38714;53.180;5.812;2023-08-31T04:20:49;12.00;99.90
52849;DHT22;38714;53.180;5.812;2023-08-31T04:23:16;12.00;99.90
52849;DHT22;38714;53.180;5.812;2023-08-31T04:25:42;12.00;99.90
52849;DHT22;38714;53.180;5.812;2023-08-31T04:28:08;11.90;99.90
52849;DHT22;38714;53.180;5.812;2023-08-31T04:30:34;11.90;99.90
52849;DHT22;38714;53.180;5.812;2023-08-31T04:32:59;11.90;99.90
52849;DHT22;38714;53.180;5.812;2023-08-31T04:35:25;11.90;99.90
52849;DHT22;38714;53.180;5.812;2023-08-31T04:37:50;11.90;99.90
52849;DHT22;38714;53.180;5.812;2023-08-31T04:40:16;11.90;99.90
52849;DHT22;38714;53.180;5.812;2023-08-31T04:42:42;11.90;99.90
52849;DHT22;38714;53.180;5.812;2023-08-31T04:45:08;11.90;99.90
52849;DHT22;38714;53.180;5.812;2023-08-31T04:47:35;11.80;99.90
52849;DHT22;38714;53.180;5.812;2023-08-31T04:50:01;11.80;99.90
52849;DHT22;38714;53.180;5.812;2023-08-31T04:52:27;11.80;99.90
52849;DHT22;38714;53.180;5.812;2023-08-31T04:54:52;11.80;99.90
52849;DHT22;38714;53.180;5.812;2023-08-31T04:57:18;11.90;99.90
52849;DHT22;38714;53.180;5.812;2023-08-31T04:59:45;11.80;99.90
52849;DHT22;38714;53.180;5.812;2023-08-31T05:02:10;11.80;99.90
52849;DHT22;38714;53.180;5.812;2023-08-31T05:04:36;11.80;99.90
52849;DHT22;38714;53.180;5.812;2023-08-31T05:07:01;11.80;99.90
52849;DHT22;38714;53.180;5.812;2023-08-31T05:09:28;11.70;99.90
52849;DHT22;38714;53.180;5.812;2023-08-31T05:11:58;11.70;99.90
52849;DHT22;38714;53.180;5.812;2023-08-31T05:14:24;11.70;99.90
52849;DHT22;38714;53.180;5.812;2023-08-31T05:16:50;11.70;99.90
52849;DHT22;38714;53.180;5.812;2023-08-31T05:19:16;11.70;99.90
52849;DHT22;38714;53.180;5.812;2023-08-31T05:21:41;11.70;99.90
52849;DHT22;38714;53.180;5.812;2023-08-31T05:24:07;11.70;99.90
52849;DHT22;38714;53.180;5.812;2023-08-31T05:26:33;11.80;99.90
52849;DHT22;38714;53.180;5.812;2023-08-31T05:28:58;11.80;99.90
52849;DHT22;38714;53.180;5.812;2023-08-31T05:31:24;11.80;99.90
52849;DHT22;38714;53.180;5.812;2023-08-31T05:33:49;11.80;99.90
52849;DHT22;38714;53.180;5.812;2023-08-31T05:36:15;11.80;99.90
52849;DHT22;38714;53.180;5.812;2023-08-31T05:38:41;11.80;99.90
52849;DHT22;38714;53.180;5.812;2023-08-31T05:41:08;11.80;99.90
52849;DHT22;38714;53.180;5.812;2023-08-31T05:43:35;11.80;99.90
52849;DHT22;38714;53.180;5.812;2023-08-31T05:46:02;11.80;99.90
52849;DHT22;38714;53.180;5.812;2023-08-31T05:48:28;11.90;99.90
52849;DHT22;38714;53.180;5.812;2023-08-31T05:50:54;11.90;99.90
52849;DHT22;38714;53.180;5.812;2023-08-31T05:53:20;11.90;99.90
52849;DHT22;38714;53.180;5.812;2023-08-31T05:55:46;11.90;99.90
52849;DHT22;38714;53.180;5.812;2023-08-31T05:58:12;12.00;99.90
52849;DHT22;38714;53.180;5.812;2023-08-31T06:00:38;12.00;99.90
52849;DHT22;38714;53.180;5.812;2023-08-31T06:03:04;12.10;99.90
52849;DHT22;38714;53.180;5.812;2023-08-31T06:05:31;12.00;99.90
52849;DHT22;38714;53.180;5.812;2023-08-31T06:07:58;12.10;99.90
52849;DHT22;38714;53.180;5.812;2023-08-31T06:10:24;12.20;99.90
52849;DHT22;38714;53.180;5.812;2023-08-31T06:12:50;12.20;99.90
52849;DHT22;38714;53.180;5.812;2023-08-31T06:15:17;12.20;99.90
52849;DHT22;38714;53.180;5.812;2023-08-31T06:17:43;12.30;99.90
52849;DHT22;38714;53.180;5.812;2023-08-31T06:20:09;12.30;99.90
52849;DHT22;38714;53.180;5.812;2023-08-31T06:22:35;12.40;99.90
52849;DHT22;38714;53.180;5.812;2023-08-31T06:25:01;12.30;99.90
52849;DHT22;38714;53.180;5.812;2023-08-31T06:27:28;12.40;99.90
52849;DHT22;38714;53.180;5.812;2023-08-31T06:29:54;12.50;99.90
52849;DHT22;38714;53.180;5.812;2023-08-31T06:32:19;12.50;99.90
52849;DHT22;38714;53.180;5.812;2023-08-31T06:34:45;12.50;99.90
52849;DHT22;38714;53.180;5.812;2023-08-31T06:37:11;12.60;99.90
52849;DHT22;38714;53.180;5.812;2023-08-31T06:39:36;12.60;99.90
52849;DHT22;38714;53.180;5.812;2023-08-31T06:42:02;12.70;99.90
52849;DHT22;38714;53.180;5.812;2023-08-31T06:44:29;12.70;99.90
52849;DHT22;38714;53.180;5.812;2023-08-31T06:46:55;12.80;99.90
52849;DHT22;38714;53.180;5.812;2023-08-31T06:49:22;12.80;99.90
52849;DHT22;38714;53.180;5.812;2023-08-31T06:51:48;12.80;99.90
52849;DHT22;38714;53.180;5.812;2023-08-31T06:54:14;12.90;99.90
52849;DHT22;38714;53.180;5.812;2023-08-31T06:56:39;13.00;99.90
52849;DHT22;38714;53.180;5.812;2023-08-31T06:59:05;13.00;99.90
52849;DHT22;38714;53.180;5.812;2023-08-31T07:01:31;13.10;99.90
52849;DHT22;38714;53.180;5.812;2023-08-31T07:03:58;13.20;99.90
52849;DHT22;38714;53.180;5.812;2023-08-31T07:06:24;13.30;99.90
52849;DHT22;38714;53.180;5.812;2023-08-31T07:08:49;13.30;99.90
52849;DHT22;38714;53.180;5.812;2023-08-31T07:11:16;13.30;99.90
52849;DHT22;38714;53.180;5.812;2023-08-31T07:13:42;13.40;99.90
52849;DHT22;38714;53.180;5.812;2023-08-31T07:16:07;13.40;99.90
52849;DHT22;38714;53.180;5.812;2023-08-31T07:18:33;13.50;99.90
52849;DHT22;38714;53.180;5.812;2023-08-31T07:20:59;13.60;99.90
52849;DHT22;38714;53.180;5.812;2023-08-31T07:23:24;13.70;99.90
52849;DHT22;38714;53.180;5.812;2023-08-31T07:25:50;13.70;99.90
52849;DHT22;38714;53.180;5.812;2023-08-31T07:28:16;13.80;99.90
52849;DHT22;38714;53.180;5.812;2023-08-31T07:30:41;13.80;99.90
52849;DHT22;38714;53.180;5.812;2023-08-31T07:33:07;13.90;99.90
52849;DHT22;38714;53.180;5.812;2023-08-31T07:35:33;14.00;99.90
52849;DHT22;38714;53.180;5.812;2023-08-31T07:37:58;14.00;99.90
52849;DHT22;38714;53.180;5.812;2023-08-31T07:40:24;14.10;99.90
52849;DHT22;38714;53.180;5.812;2023-08-31T07:42:50;14.20;99.90
52849;DHT22;38714;53.180;5.812;2023-08-31T07:45:17;14.30;99.90
52849;DHT22;38714;53.180;5.812;2023-08-31T07:47:43;14.40;99.90
52849;DHT22;38714;53.180;5.812;2023-08-31T07:50:09;14.50;99.90
52849;DHT22;38714;53.180;5.812;2023-08-31T07:52:34;14.60;99.90
52849;DHT22;38714;53.180;5.812;2023-08-31T07:55:00;14.60;99.90
52849;DHT22;38714;53.180;5.812;2023-08-31T07:57:26;14.40;99.90
52849;DHT22;38714;53.180;5.812;2023-08-31T07:59:52;14.10;99.90
52849;DHT22;38714;53.180;5.812;2023-08-31T08:02:17;13.90;99.90
52849;DHT22;38714;53.180;5.812;2023-08-31T08:04:45;13.70;99.90
52849;DHT22;38714;53.180;5.812;2023-08-31T08:07:11;13.50;99.90
52849;DHT22;38714;53.180;5.812;2023-08-31T08:09:36;13.40;99.90
52849;DHT22;38714;53.180;5.812;2023-08-31T08:12:02;13.30;99.90
52849;DHT22;38714;53.180;5.812;2023-08-31T08:14:28;13.30;99.90
52849;DHT22;38714;53.180;5.812;2023-08-31T08:16:54;13.30;99.90
52849;DHT22;38714;53.180;5.812;2023-08-31T08:19:23;13.30;99.90
52849;DHT22;38714;53.180;5.812;2023-08-31T08:21:52;13.40;99.90
52849;DHT22;38714;53.180;5.812;2023-08-31T08:24:18;13.40;99.90
52849;DHT22;38714;53.180;5.812;2023-08-31T08:26:44;13.50;99.90
52849;DHT22;38714;53.180;5.812;2023-08-31T08:29:10;13.60;99.90
52849;DHT22;38714;53.180;5.812;2023-08-31T08:31:36;13.70;99.90
52849;DHT22;38714;53.180;5.812;2023-08-31T08:34:01;13.80;99.90
52849;DHT22;38714;53.180;5.812;2023-08-31T08:36:29;13.90;99.90
52849;DHT22;38714;53.180;5.812;2023-08-31T08:38:54;14.00;99.90
52849;DHT22;38714;53.180;5.812;2023-08-31T08:41:23;14.10;99.90
52849;DHT22;38714;53.180;5.812;2023-08-31T08:43:51;14.20;99.90
52849;DHT22;38714;53.180;5.812;2023-08-31T08:46:17;14.30;99.90
52849;DHT22;38714;53.180;5.812;2023-08-31T08:48:44;14.20;99.90
52849;DHT22;38714;53.180;5.812;2023-08-31T08:51:11;14.10;99.90
52849;DHT22;38714;53.180;5.812;2023-08-31T08:53:37;14.10;99.90
52849;DHT22;38714;53.180;5.812;2023-08-31T08:56:04;14.10;99.90
52849;DHT22;38714;53.180;5.812;2023-08-31T08:58:30;14.10;99.90
52849;DHT22;38714;53.180;5.812;2023-08-31T09:00:56;14.10;99.90
52849;DHT22;38714;53.180;5.812;2023-08-31T09:03:22;14.30;99.90
52849;DHT22;38714;53.180;5.812;2023-08-31T09:05:48;14.30;99.90
52849;DHT22;38714;53.180;5.812;2023-08-31T09:08:14;14.40;99.90
52849;DHT22;38714;53.180;5.812;2023-08-31T09:10:42;14.40;99.90
52849;DHT22;38714;53.180;5.812;2023-08-31T09:13:09;14.50;99.90
52849;DHT22;38714;53.180;5.812;2023-08-31T09:15:43;14.60;99.90
52849;DHT22;38714;53.180;5.812;2023-08-31T09:18:16;14.60;99.90
52849;DHT22;38714;53.180;5.812;2023-08-31T09:20:46;14.70;99.90
52849;DHT22;38714;53.180;5.812;2023-08-31T09:23:13;14.80;99.90
52849;DHT22;38714;53.180;5.812;2023-08-31T09:25:47;14.90;99.90
52849;DHT22;38714;53.180;5.812;2023-08-31T09:28:15;14.90;99.90
52849;DHT22;38714;53.180;5.812;2023-08-31T09:30:42;15.00;99.90
52849;DHT22;38714;53.180;5.812;2023-08-31T09:33:14;15.10;99.90
52849;DHT22;38714;53.180;5.812;2023-08-31T09:35:49;15.20;99.90
52849;DHT22;38714;53.180;5.812;2023-08-31T09:38:15;15.30;99.90
52849;DHT22;38714;53.180;5.812;2023-08-31T09:40:41;15.30;99.90
52849;DHT22;38714;53.180;5.812;2023-08-31T09:43:07;15.20;99.90
52849;DHT22;38714;53.180;5.812;2023-08-31T09:45:34;15.10;99.90
52849;DHT22;38714;53.180;5.812;2023-08-31T09:48:02;15.00;99.90
52849;DHT22;38714;53.180;5.812;2023-08-31T09:50:32;14.90;99.90
52849;DHT22;38714;53.180;5.812;2023-08-31T09:53:02;14.80;99.90
52849;DHT22;38714;53.180;5.812;2023-08-31T09:55:30;14.80;99.90
52849;DHT22;38714;53.180;5.812;2023-08-31T09:57:57;14.80;99.90
52849;DHT22;38714;53.180;5.812;2023-08-31T10:00:29;14.90;99.90
52849;DHT22;38714;53.180;5.812;2023-08-31T10:02:57;15.00;99.90
52849;DHT22;38714;53.180;5.812;2023-08-31T10:05:24;15.10;99.90
52849;DHT22;38714;53.180;5.812;2023-08-31T10:07:52;15.20;99.90
52849;DHT22;38714;53.180;5.812;2023-08-31T10:10:18;15.40;99.90
52849;DHT22;38714;53.180;5.812;2023-08-31T10:12:48;15.50;99.90
52849;DHT22;38714;53.180;5.812;2023-08-31T10:15:15;15.60;99.90
52849;DHT22;38714;53.180;5.812;2023-08-31T10:17:41;15.70;99.90
52849;DHT22;38714;53.180;5.812;2023-08-31T10:20:08;15.70;99.90
52849;DHT22;38714;53.180;5.812;2023-08-31T10:22:36;15.70;99.90
52849;DHT22;38714;53.180;5.812;2023-08-31T10:25:05;15.70;99.90
52849;DHT22;38714;53.180;5.812;2023-08-31T10:27:42;15.60;99.90
52849;DHT22;38714;53.180;5.812;2023-08-31T10:30:15;15.50;99.90
52849;DHT22;38714;53.180;5.812;2023-08-31T10:32:41;15.30;99.90
52849;DHT22;38714;53.180;5.812;2023-08-31T10:35:10;15.20;99.90
52849;DHT22;38714;53.180;5.812;2023-08-31T10:37:35;15.30;99.90
52849;DHT22;38714;53.180;5.812;2023-08-31T10:40:08;15.30;99.90
52849;DHT22;38714;53.180;5.812;2023-08-31T10:42:45;15.30;99.90
52849;DHT22;38714;53.180;5.812;2023-08-31T10:45:11;15.40;99.90
52849;DHT22;38714;53.180;5.812;2023-08-31T10:47:40;15.60;99.90
52849;DHT22;38714;53.180;5.812;2023-08-31T10:50:22;15.70;99.90
52849;DHT22;38714;53.180;5.812;2023-08-31T10:52:50;15.80;99.90
52849;DHT22;38714;53.180;5.812;2023-08-31T10:55:15;15.80;99.90
52849;DHT22;38714;53.180;5.812;2023-08-31T10:57:41;15.80;99.90
52849;DHT22;38714;53.180;5.812;2023-08-31T11:00:08;15.90;99.90
52849;DHT22;38714;53.180;5.812;2023-08-31T11:07:41;16.10;99.90
52849;DHT22;38714;53.180;5.812;2023-08-31T11:10:20;16.10;99.90
52849;DHT22;38714;53.180;5.812;2023-08-31T11:12:50;16.20;99.90
52849;DHT22;38714;53.180;5.812;2023-08-31T11:15:19;16.10;99.90
52849;DHT22;38714;53.180;5.812;2023-08-31T11:17:45;16.10;99.90
52849;DHT22;38714;53.180;5.812;2023-08-31T11:20:16;16.00;99.90
52849;DHT22;38714;53.180;5.812;2023-08-31T11:22:43;16.00;99.90
52849;DHT22;38714;53.180;5.812;2023-08-31T11:25:12;16.00;99.90
52849;DHT22;38714;53.180;5.812;2023-08-31T11:27:38;16.00;99.90
52849;DHT22;38714;53.180;5.812;2023-08-31T11:30:14;16.10;99.90
52849;DHT22;38714;53.180;5.812;2023-08-31T11:32:47;16.20;99.90
52849;DHT22;38714;53.180;5.812;2023-08-31T11:35:15;16.20;99.90
52849;DHT22;38714;53.180;5.812;2023-08-31T11:37:43;16.20;99.90
52849;DHT22;38714;53.180;5.812;2023-08-31T11:40:09;16.10;99.90
52849;DHT22;38714;53.180;5.812;2023-08-31T11:42:35;16.10;99.90
52849;DHT22;38714;53.180;5.812;2023-08-31T11:45:01;16.00;99.90
52849;DHT22;38714;53.180;5.812;2023-08-31T11:47:33;16.10;99.90
52849;DHT22;38714;53.180;5.812;2023-08-31T11:50:00;16.20;99.90
52849;DHT22;38714;53.180;5.812;2023-08-31T11:52:30;16.30;99.90
52849;DHT22;38714;53.180;5.812;2023-08-31T11:54:56;16.40;99.90
52849;DHT22;38714;53.180;5.812;2023-08-31T11:57:26;16.40;99.90
52849;DHT22;38714;53.180;5.812;2023-08-31T11:59:51;16.40;99.90
52849;DHT22;38714;53.180;5.812;2023-08-31T12:02:19;16.30;99.90
52849;DHT22;38714;53.180;5.812;2023-08-31T12:04:45;16.20;99.90
52849;DHT22;38714;53.180;5.812;2023-08-31T12:07:16;16.20;99.90
52849;DHT22;38714;53.180;5.812;2023-08-31T12:09:42;16.10;99.90
52849;DHT22;38714;53.180;5.812;2023-08-31T12:12:10;16.00;99.90
52849;DHT22;38714;53.180;5.812;2023-08-31T12:14:37;16.00;99.90
52849;DHT22;38714;53.180;5.812;2023-08-31T12:17:07;16.00;99.90
52849;DHT22;38714;53.180;5.812;2023-08-31T12:19:36;16.00;99.90
52849;DHT22;38714;53.180;5.812;2023-08-31T12:22:01;16.00;99.90
52849;DHT22;38714;53.180;5.812;2023-08-31T12:24:27;16.00;99.90
52849;DHT22;38714;53.180;5.812;2023-08-31T12:26:53;16.00;99.90
52849;DHT22;38714;53.180;5.812;2023-08-31T12:29:19;15.90;99.90
52849;DHT22;38714;53.180;5.812;2023-08-31T12:31:45;16.00;99.90
52849;DHT22;38714;53.180;5.812;2023-08-31T12:34:11;15.90;99.90
52849;DHT22;38714;53.180;5.812;2023-08-31T12:36:37;15.90;99.90
52849;DHT22;38714;53.180;5.812;2023-08-31T12:39:04;15.90;99.90
52849;DHT22;38714;53.180;5.812;2023-08-31T12:41:33;15.90;99.90
52849;DHT22;38714;53.180;5.812;2023-08-31T12:43:58;15.90;99.90
52849;DHT22;38714;53.180;5.812;2023-08-31T12:46:24;15.90;99.90
52849;DHT22;38714;53.180;5.812;2023-08-31T12:48:50;16.00;99.90
52849;DHT22;38714;53.180;5.812;2023-08-31T12:51:18;16.10;99.90
52849;DHT22;38714;53.180;5.812;2023-08-31T12:53:44;16.10;99.90
52849;DHT22;38714;53.180;5.812;2023-08-31T12:56:09;16.20;99.90
52849;DHT22;38714;53.180;5.812;2023-08-31T12:58:35;16.10;99.90
52849;DHT22;38714;53.180;5.812;2023-08-31T13:01:01;16.10;99.90
52849;DHT22;38714;53.180;5.812;2023-08-31T13:03:27;16.00;99.90
52849;DHT22;38714;53.180;5.812;2023-08-31T13:05:53;16.00;99.90
52849;DHT22;38714;53.180;5.812;2023-08-31T13:08:19;15.90;99.90
52849;DHT22;38714;53.180;5.812;2023-08-31T13:10:51;15.90;99.90
52849;DHT22;38714;53.180;5.812;2023-08-31T13:13:16;15.90;99.90
52849;DHT22;38714;53.180;5.812;2023-08-31T13:15:42;15.80;99.90
52849;DHT22;38714;53.180;5.812;2023-08-31T13:18:07;15.80;99.90
52849;DHT22;38714;53.180;5.812;2023-08-31T13:20:33;15.70;99.90
52849;DHT22;38714;53.180;5.812;2023-08-31T13:23:00;15.70;99.90
52849;DHT22;38714;53.180;5.812;2023-08-31T13:25:26;15.80;99.90
52849;DHT22;38714;53.180;5.812;2023-08-31T13:27:51;15.90;99.90
52849;DHT22;38714;53.180;5.812;2023-08-31T13:30:17;16.10;99.90
52849;DHT22;38714;53.180;5.812;2023-08-31T13:32:43;16.20;99.90
52849;DHT22;38714;53.180;5.812;2023-08-31T13:35:09;16.30;99.90
52849;DHT22;38714;53.180;5.812;2023-08-31T13:37:35;16.30;99.90
52849;DHT22;38714;53.180;5.812;2023-08-31T13:40:01;16.30;99.90
52849;DHT22;38714;53.180;5.812;2023-08-31T13:42:32;16.40;99.90
52849;DHT22;38714;53.180;5.812;2023-08-31T13:44:58;16.40;99.90
52849;DHT22;38714;53.180;5.812;2023-08-31T13:47:27;16.40;99.90
52849;DHT22;38714;53.180;5.812;2023-08-31T13:49:53;16.40;99.90
52849;DHT22;38714;53.180;5.812;2023-08-31T13:52:18;16.50;99.90
52849;DHT22;38714;53.180;5.812;2023-08-31T13:54:46;16.60;99.90
52849;DHT22;38714;53.180;5.812;2023-08-31T13:57:12;16.60;99.90
52849;DHT22;38714;53.180;5.812;2023-08-31T13:59:45;16.60;99.90
52849;DHT22;38714;53.180;5.812;2023-08-31T14:02:11;16.70;99.90
52849;DHT22;38714;53.180;5.812;2023-08-31T14:04:36;16.70;99.90
52849;DHT22;38714;53.180;5.812;2023-08-31T14:07:02;16.70;99.90
52849;DHT22;38714;53.180;5.812;2023-08-31T14:09:28;16.70;99.90
52849;DHT22;38714;53.180;5.812;2023-08-31T14:11:54;16.70;99.90
52849;DHT22;38714;53.180;5.812;2023-08-31T14:14:22;16.70;99.90
52849;DHT22;38714;53.180;5.812;2023-08-31T14:16:49;16.60;99.90
52849;DHT22;38714;53.180;5.812;2023-08-31T14:19:15;16.60;99.90
52849;DHT22;38714;53.180;5.812;2023-08-31T14:21:40;16.50;99.90
52849;DHT22;38714;53.180;5.812;2023-08-31T14:24:06;16.50;99.90
52849;DHT22;38714;53.180;5.812;2023-08-31T14:26:32;16.50;99.90
52849;DHT22;38714;53.180;5.812;2023-08-31T14:28:58;16.50;99.90
52849;DHT22;38714;53.180;5.812;2023-08-31T14:31:23;16.50;99.90
52849;DHT22;38714;53.180;5.812;2023-08-31T14:33:49;16.50;99.90
52849;DHT22;38714;53.180;5.812;2023-08-31T14:36:16;16.40;99.90
52849;DHT22;38714;53.180;5.812;2023-08-31T14:38:42;16.40;99.90
52849;DHT22;38714;53.180;5.812;2023-08-31T14:41:08;16.20;99.90
52849;DHT22;38714;53.180;5.812;2023-08-31T14:43:33;16.00;99.90
52849;DHT22;38714;53.180;5.812;2023-08-31T14:46:00;15.80;99.90
52849;DHT22;38714;53.180;5.812;2023-08-31T14:48:29;15.70;99.90
52849;DHT22;38714;53.180;5.812;2023-08-31T14:50:55;15.60;99.90
52849;DHT22;38714;53.180;5.812;2023-08-31T14:53:24;15.60;99.90
52849;DHT22;38714;53.180;5.812;2023-08-31T14:55:50;15.60;99.90
52849;DHT22;38714;53.180;5.812;2023-08-31T14:58:16;15.60;99.90
52849;DHT22;38714;53.180;5.812;2023-08-31T15:00:42;15.60;99.90
52849;DHT22;38714;53.180;5.812;2023-08-31T15:03:07;15.60;99.90
52849;DHT22;38714;53.180;5.812;2023-08-31T15:05:34;15.70;99.90
52849;DHT22;38714;53.180;5.812;2023-08-31T15:08:00;15.80;99.90
52849;DHT22;38714;53.180;5.812;2023-08-31T15:10:27;15.80;99.90
52849;DHT22;38714;53.180;5.812;2023-08-31T15:12:53;15.90;99.90
52849;DHT22;38714;53.180;5.812;2023-08-31T15:15:25;16.00;99.90
52849;DHT22;38714;53.180;5.812;2023-08-31T15:17:51;16.00;99.90
52849;DHT22;38714;53.180;5.812;2023-08-31T15:20:16;16.10;99.90
52849;DHT22;38714;53.180;5.812;2023-08-31T15:22:42;16.10;99.90
52849;DHT22;38714;53.180;5.812;2023-08-31T15:25:08;16.20;99.90
52849;DHT22;38714;53.180;5.812;2023-08-31T15:27:33;16.20;99.90
52849;DHT22;38714;53.180;5.812;2023-08-31T15:29:59;16.20;99.90
52849;DHT22;38714;53.180;5.812;2023-08-31T15:32:25;16.30;99.90
52849;DHT22;38714;53.180;5.812;2023-08-31T15:34:50;16.30;99.90
52849;DHT22;38714;53.180;5.812;2023-08-31T15:37:16;16.40;99.90
52849;DHT22;38714;53.180;5.812;2023-08-31T15:39:41;16.30;99.90
52849;DHT22;38714;53.180;5.812;2023-08-31T15:42:07;16.40;99.90
52849;DHT22;38714;53.180;5.812;2023-08-31T15:44:41;16.40;99.90
52849;DHT22;38714;53.180;5.812;2023-08-31T15:47:07;16.40;99.90